sensor_id;sensor_type;location;lat;lon;timestamp;temperature;humidity
55812;DHT22;41742;52.048;6.092;2022-12-18T00:01:31;-2.80;99.90
55812;DHT22;41742;52.048;6.092;2022-12-18T00:03:58;-2.80;99.90
55812;DHT22;41742;52.048;6.092;2022-12-18T00:06:26;-2.80;99.90
55812;DHT22;41742;52.048;6.092;2022-12-18T00:08:52;-2.90;99.90
55812;DHT22;41742;52.048;6.092;2022-12-18T00:11:20;-3.10;99.90
55812;DHT22;41742;52.048;6.092;2022-12-18T00:13:46;-3.10;99.90
55812;DHT22;41742;52.048;6.092;2022-12-18T00:16:14;-3.10;99.90
55812;DHT22;41742;52.048;6.092;2022-12-18T00:18:41;-3.10;99.90
55812;DHT22;41742;52.048;6.092;2022-12-18T00:21:09;-3.10;99.90
55812;DHT22;41742;52.048;6.092;2022-12-18T00:23:36;-3.30;99.90
55812;DHT22;41742;52.048;6.092;2022-12-18T00:26:07;-3.40;99.90
55812;DHT22;41742;52.048;6.092;2022-12-18T00:28:33;-3.30;99.90
55812;DHT22;41742;52.048;6.092;2022-12-18T00:31:03;-3.60;99.90
55812;DHT22;41742;52.048;6.092;2022-12-18T00:33:30;-3.50;99.90
55812;DHT22;41742;52.048;6.092;2022-12-18T00:36:10;-3.40;99.90
55812;DHT22;41742;52.048;6.092;2022-12-18T00:38:36;-3.40;99.90
55812;DHT22;41742;52.048;6.092;2022-12-18T00:41:03;-3.70;99.90
55812;DHT22;41742;52.048;6.092;2022-12-18T00:43:28;-3.70;99.90
55812;DHT22;41742;52.048;6.092;2022-12-18T00:45:54;-3.70;99.90
55812;DHT22;41742;52.048;6.092;2022-12-18T00:48:20;-3.60;99.90
55812;DHT22;41742;52.048;6.092;2022-12-18T00:50:50;-3.70;99.90
55812;DHT22;41742;52.048;6.092;2022-12-18T00:53:16;-3.80;99.90
55812;DHT22;41742;52.048;6.092;2022-12-18T00:55:43;-3.80;99.90
55812;DHT22;41742;52.048;6.092;2022-12-18T00:58:10;-3.70;99.90
55812;DHT22;41742;52.048;6.092;2022-12-18T01:00:36;-3.70;99.90
55812;DHT22;41742;52.048;6.092;2022-12-18T01:03:03;-3.60;99.90
55812;DHT22;41742;52.048;6.092;2022-12-18T01:05:29;-3.60;99.90
55812;DHT22;41742;52.048;6.092;2022-12-18T01:07:55;-3.70;99.90
55812;DHT22;41742;52.048;6.092;2022-12-18T01:10:21;-3.90;99.90
55812;DHT22;41742;52.048;6.092;2022-12-18T01:12:47;-3.80;99.90
55812;DHT22;41742;52.048;6.092;2022-12-18T01:15:14;-3.80;99.90
55812;DHT22;41742;52.048;6.092;2022-12-18T01:17:41;-3.80;99.90
55812;DHT22;41742;52.048;6.092;2022-12-18T01:20:08;-3.70;99.90
55812;DHT22;41742;52.048;6.092;2022-12-18T01:22:34;-3.70;99.90
55812;DHT22;41742;52.048;6.092;2022-12-18T01:25:00;-3.70;99.90
55812;DHT22;41742;52.048;6.092;2022-12-18T01:27:25;-3.70;99.90
55812;DHT22;41742;52.048;6.092;2022-12-18T01:29:51;-3.70;99.90
55812;DHT22;41742;52.048;6.092;2022-12-18T01:32:19;-3.70;99.90
55812;DHT22;41742;52.048;6.092;2022-12-18T01:34:44;-3.80;99.90
55812;DHT22;41742;52.048;6.092;2022-12-18T01:37:10;-3.80;99.90
55812;DHT22;41742;52.048;6.092;2022-12-18T01:39:36;-3.80;99.90
55812;DHT22;41742;52.048;6.092;2022-12-18T01:42:11;-3.80;99.90
55812;DHT22;41742;52.048;6.092;2022-12-18T01:47:39;-3.80;99.90
55812;DHT22;41742;52.048;6.092;2022-12-18T01:50:21;-3.90;99.90
55812;DHT22;41742;52.048;6.092;2022-12-18T01:55:19;-4.10;99.90
55812;DHT22;41742;52.048;6.092;2022-12-18T01:57:47;-4.30;99.90
55812;DHT22;41742;52.048;6.092;2022-12-18T02:00:17;-4.30;99.90
55812;DHT22;41742;52.048;6.092;2022-12-18T02:02:45;-4.40;99.90
55812;DHT22;41742;52.048;6.092;2022-12-18T02:05:20;-4.40;99.90
55812;DHT22;41742;52.048;6.092;2022-12-18T02:10:43;-4.50;99.90
55812;DHT22;41742;52.048;6.092;2022-12-18T02:13:22;-4.50;99.90
55812;DHT22;41742;52.048;6.092;2022-12-18T02:18:45;-4.50;99.90
55812;DHT22;41742;52.048;6.092;2022-12-18T02:26:53;-4.40;99.90
55812;DHT22;41742;52.048;6.092;2022-12-18T02:29:38;-4.40;99.90
55812;DHT22;41742;52.048;6.092;2022-12-18T02:32:09;-4.40;99.90
55812;DHT22;41742;52.048;6.092;2022-12-18T02:34:38;-4.40;99.90
55812;DHT22;41742;52.048;6.092;2022-12-18T02:37:08;-4.40;99.90
55812;DHT22;41742;52.048;6.092;2022-12-18T02:39:39;-4.60;99.90
55812;DHT22;41742;52.048;6.092;2022-12-18T02:42:06;-4.60;99.90
55812;DHT22;41742;52.048;6.092;2022-12-18T02:44:42;-4.70;99.90
55812;DHT22;41742;52.048;6.092;2022-12-18T02:47:11;-4.70;99.90
55812;DHT22;41742;52.048;6.092;2022-12-18T02:55:22;-4.70;99.90
55812;DHT22;41742;52.048;6.092;2022-12-18T02:57:56;-4.70;99.90
55812;DHT22;41742;52.048;6.092;2022-12-18T03:00:32;-4.70;99.90
55812;DHT22;41742;52.048;6.092;2022-12-18T03:03:12;-4.70;99.90
55812;DHT22;41742;52.048;6.092;2022-12-18T03:06:06;-4.70;99.90
55812;DHT22;41742;52.048;6.092;2022-12-18T03:08:39;-4.80;99.90
55812;DHT22;41742;52.048;6.092;2022-12-18T03:11:11;-4.80;99.90
55812;DHT22;41742;52.048;6.092;2022-12-18T03:13:48;-4.80;99.90
55812;DHT22;41742;52.048;6.092;2022-12-18T03:16:28;-4.80;99.90
55812;DHT22;41742;52.048;6.092;2022-12-18T03:19:32;-4.70;99.90
55812;DHT22;41742;52.048;6.092;2022-12-18T03:21:54;-4.80;99.90
55812;DHT22;41742;52.048;6.092;2022-12-18T03:24:24;-4.80;99.90
55812;DHT22;41742;52.048;6.092;2022-12-18T03:26:53;-4.80;99.90
55812;DHT22;41742;52.048;6.092;2022-12-18T03:29:25;-4.80;99.90
55812;DHT22;41742;52.048;6.092;2022-12-18T03:31:56;-4.70;99.90
55812;DHT22;41742;52.048;6.092;2022-12-18T03:34:30;-4.70;99.90
55812;DHT22;41742;52.048;6.092;2022-12-18T03:37:01;-4.70;99.90
55812;DHT22;41742;52.048;6.092;2022-12-18T03:39:27;-4.70;99.90
55812;DHT22;41742;52.048;6.092;2022-12-18T03:44:53;-4.70;99.90
55812;DHT22;41742;52.048;6.092;2022-12-18T03:47:27;-4.70;99.90
55812;DHT22;41742;52.048;6.092;2022-12-18T03:50:11;-4.80;99.90
55812;DHT22;41742;52.048;6.092;2022-12-18T03:53:00;-4.70;99.90
55812;DHT22;41742;52.048;6.092;2022-12-18T03:55:32;-4.80;99.90
55812;DHT22;41742;52.048;6.092;2022-12-18T03:58:03;-4.80;99.90
55812;DHT22;41742;52.048;6.092;2022-12-18T04:00:40;-4.80;99.90
55812;DHT22;41742;52.048;6.092;2022-12-18T04:03:08;-4.90;99.90
55812;DHT22;41742;52.048;6.092;2022-12-18T04:05:42;-4.90;99.90
55812;DHT22;41742;52.048;6.092;2022-12-18T04:08:08;-4.90;99.90
55812;DHT22;41742;52.048;6.092;2022-12-18T04:10:37;-4.90;99.90
55812;DHT22;41742;52.048;6.092;2022-12-18T04:13:03;-4.90;99.90
55812;DHT22;41742;52.048;6.092;2022-12-18T04:15:29;-4.90;99.90
55812;DHT22;41742;52.048;6.092;2022-12-18T04:17:55;-4.90;99.90
55812;DHT22;41742;52.048;6.092;2022-12-18T04:20:23;-4.90;99.90
55812;DHT22;41742;52.048;6.092;2022-12-18T04:22:49;-4.90;99.90
55812;DHT22;41742;52.048;6.092;2022-12-18T04:25:18;-4.90;99.90
55812;DHT22;41742;52.048;6.092;2022-12-18T04:27:56;-4.90;99.90
55812;DHT22;41742;52.048;6.092;2022-12-18T04:30:22;-4.90;99.90
55812;DHT22;41742;52.048;6.092;2022-12-18T04:32:48;-5.00;99.90
55812;DHT22;41742;52.048;6.092;2022-12-18T04:35:13;-5.00;99.90
55812;DHT22;41742;52.048;6.092;2022-12-18T04:37:42;-5.00;99.90
55812;DHT22;41742;52.048;6.092;2022-12-18T04:40:08;-5.00;99.90
55812;DHT22;41742;52.048;6.092;2022-12-18T04:42:40;-5.00;99.90
55812;DHT22;41742;52.048;6.092;2022-12-18T04:45:06;-5.00;99.90
55812;DHT22;41742;52.048;6.092;2022-12-18T04:47:32;-5.00;99.90
55812;DHT22;41742;52.048;6.092;2022-12-18T04:49:58;-5.00;99.90
55812;DHT22;41742;52.048;6.092;2022-12-18T04:52:23;-5.00;99.90
55812;DHT22;41742;52.048;6.092;2022-12-18T04:54:49;-5.10;99.90
55812;DHT22;41742;52.048;6.092;2022-12-18T04:57:15;-5.10;99.90
55812;DHT22;41742;52.048;6.092;2022-12-18T04:59:41;-5.10;99.90
55812;DHT22;41742;52.048;6.092;2022-12-18T05:02:07;-5.10;99.90
55812;DHT22;41742;52.048;6.092;2022-12-18T05:04:33;-5.20;99.90
55812;DHT22;41742;52.048;6.092;2022-12-18T05:06:58;-5.30;99.90
55812;DHT22;41742;52.048;6.092;2022-12-18T05:09:24;-5.30;99.90
55812;DHT22;41742;52.048;6.092;2022-12-18T05:11:49;-5.20;99.90
55812;DHT22;41742;52.048;6.092;2022-12-18T05:14:15;-5.20;99.90
55812;DHT22;41742;52.048;6.092;2022-12-18T05:16:41;-5.20;99.90
55812;DHT22;41742;52.048;6.092;2022-12-18T05:19:06;-5.30;99.90
55812;DHT22;41742;52.048;6.092;2022-12-18T05:21:32;-5.40;99.90
55812;DHT22;41742;52.048;6.092;2022-12-18T05:23:57;-5.40;99.90
55812;DHT22;41742;52.048;6.092;2022-12-18T05:26:23;-5.50;99.90
55812;DHT22;41742;52.048;6.092;2022-12-18T05:28:49;-5.50;99.90
55812;DHT22;41742;52.048;6.092;2022-12-18T05:31:14;-5.60;99.90
55812;DHT22;41742;52.048;6.092;2022-12-18T05:33:40;-5.60;99.90
55812;DHT22;41742;52.048;6.092;2022-12-18T05:36:07;-5.60;99.90
55812;DHT22;41742;52.048;6.092;2022-12-18T05:38:35;-5.50;99.90
55812;DHT22;41742;52.048;6.092;2022-12-18T05:41:02;-5.60;99.90
55812;DHT22;41742;52.048;6.092;2022-12-18T05:43:28;-5.60;99.90
55812;DHT22;41742;52.048;6.092;2022-12-18T05:45:54;-5.70;99.90
55812;DHT22;41742;52.048;6.092;2022-12-18T05:48:21;-5.80;99.90
55812;DHT22;41742;52.048;6.092;2022-12-18T05:50:49;-5.90;99.90
55812;DHT22;41742;52.048;6.092;2022-12-18T05:53:17;-5.80;99.90
55812;DHT22;41742;52.048;6.092;2022-12-18T05:55:43;-5.70;99.90
55812;DHT22;41742;52.048;6.092;2022-12-18T05:58:10;-5.60;99.90
55812;DHT22;41742;52.048;6.092;2022-12-18T06:00:37;-5.60;99.90
55812;DHT22;41742;52.048;6.092;2022-12-18T06:03:08;-5.60;99.90
55812;DHT22;41742;52.048;6.092;2022-12-18T06:05:42;-5.50;99.90
55812;DHT22;41742;52.048;6.092;2022-12-18T06:08:08;-5.50;99.90
55812;DHT22;41742;52.048;6.092;2022-12-18T06:10:34;-5.60;99.90
55812;DHT22;41742;52.048;6.092;2022-12-18T06:13:01;-5.60;99.90
55812;DHT22;41742;52.048;6.092;2022-12-18T06:15:26;-5.50;99.90
55812;DHT22;41742;52.048;6.092;2022-12-18T06:17:52;-5.50;99.90
55812;DHT22;41742;52.048;6.092;2022-12-18T06:20:18;-5.50;99.90
55812;DHT22;41742;52.048;6.092;2022-12-18T06:22:44;-5.40;99.90
55812;DHT22;41742;52.048;6.092;2022-12-18T06:25:09;-5.30;99.90
55812;DHT22;41742;52.048;6.092;2022-12-18T06:27:35;-5.30;99.90
55812;DHT22;41742;52.048;6.092;2022-12-18T06:30:01;-5.30;99.90
55812;DHT22;41742;52.048;6.092;2022-12-18T06:32:27;-5.30;99.90
55812;DHT22;41742;52.048;6.092;2022-12-18T06:34:53;-5.30;99.90
55812;DHT22;41742;52.048;6.092;2022-12-18T06:37:21;-5.30;99.90
55812;DHT22;41742;52.048;6.092;2022-12-18T06:39:46;-5.30;99.90
55812;DHT22;41742;52.048;6.092;2022-12-18T06:42:12;-5.30;99.90
55812;DHT22;41742;52.048;6.092;2022-12-18T06:44:38;-5.30;99.90
55812;DHT22;41742;52.048;6.092;2022-12-18T06:47:03;-5.30;99.90
55812;DHT22;41742;52.048;6.092;2022-12-18T06:49:29;-5.30;99.90
55812;DHT22;41742;52.048;6.092;2022-12-18T06:51:54;-5.30;99.90
55812;DHT22;41742;52.048;6.092;2022-12-18T06:54:20;-5.30;99.90
55812;DHT22;41742;52.048;6.092;2022-12-18T06:56:46;-5.30;99.90
55812;DHT22;41742;52.048;6.092;2022-12-18T06:59:13;-5.30;99.90
55812;DHT22;41742;52.048;6.092;2022-12-18T07:01:38;-5.30;99.90
55812;DHT22;41742;52.048;6.092;2022-12-18T07:04:04;-5.30;99.90
55812;DHT22;41742;52.048;6.092;2022-12-18T07:06:30;-5.30;99.90
55812;DHT22;41742;52.048;6.092;2022-12-18T07:08:55;-5.30;99.90
55812;DHT22;41742;52.048;6.092;2022-12-18T07:11:21;-5.40;99.90
55812;DHT22;41742;52.048;6.092;2022-12-18T07:13:47;-5.30;99.90
55812;DHT22;41742;52.048;6.092;2022-12-18T07:16:16;-5.30;99.90
55812;DHT22;41742;52.048;6.092;2022-12-18T07:18:42;-5.30;99.90
55812;DHT22;41742;52.048;6.092;2022-12-18T07:21:12;-5.30;99.90
55812;DHT22;41742;52.048;6.092;2022-12-18T07:23:38;-5.30;99.90
55812;DHT22;41742;52.048;6.092;2022-12-18T07:26:04;-5.30;99.90
55812;DHT22;41742;52.048;6.092;2022-12-18T07:28:31;-5.50;99.90
55812;DHT22;41742;52.048;6.092;2022-12-18T07:30:57;-5.50;99.90
55812;DHT22;41742;52.048;6.092;2022-12-18T07:33:24;-5.40;99.90
55812;DHT22;41742;52.048;6.092;2022-12-18T07:35:50;-5.40;99.90
55812;DHT22;41742;52.048;6.092;2022-12-18T07:38:16;-5.30;99.90
55812;DHT22;41742;52.048;6.092;2022-12-18T07:40:42;-5.20;99.90
55812;DHT22;41742;52.048;6.092;2022-12-18T07:43:07;-5.20;99.90
55812;DHT22;41742;52.048;6.092;2022-12-18T07:45:33;-5.30;99.90
55812;DHT22;41742;52.048;6.092;2022-12-18T07:47:58;-5.30;99.90
55812;DHT22;41742;52.048;6.092;2022-12-18T07:50:24;-5.30;99.90
55812;DHT22;41742;52.048;6.092;2022-12-18T07:52:49;-5.20;99.90
55812;DHT22;41742;52.048;6.092;2022-12-18T07:55:15;-5.20;99.90
55812;DHT22;41742;52.048;6.092;2022-12-18T07:57:41;-5.20;99.90
55812;DHT22;41742;52.048;6.092;2022-12-18T08:00:07;-5.20;99.90
55812;DHT22;41742;52.048;6.092;2022-12-18T08:02:37;-5.20;99.90
55812;DHT22;41742;52.048;6.092;2022-12-18T08:05:03;-5.40;99.90
55812;DHT22;41742;52.048;6.092;2022-12-18T08:07:29;-5.50;99.90
55812;DHT22;41742;52.048;6.092;2022-12-18T08:09:55;-5.40;99.90
55812;DHT22;41742;52.048;6.092;2022-12-18T08:12:20;-5.40;99.90
55812;DHT22;41742;52.048;6.092;2022-12-18T08:14:46;-5.50;99.90
55812;DHT22;41742;52.048;6.092;2022-12-18T08:17:11;-5.50;99.90
55812;DHT22;41742;52.048;6.092;2022-12-18T08:19:37;-5.40;99.90
55812;DHT22;41742;52.048;6.092;2022-12-18T08:22:03;-5.40;99.90
55812;DHT22;41742;52.048;6.092;2022-12-18T08:24:28;-5.40;99.90
55812;DHT22;41742;52.048;6.092;2022-12-18T08:26:54;-5.40;99.90
55812;DHT22;41742;52.048;6.092;2022-12-18T08:29:20;-5.40;99.90
55812;DHT22;41742;52.048;6.092;2022-12-18T08:31:45;-5.30;99.90
55812;DHT22;41742;52.048;6.092;2022-12-18T08:34:11;-5.20;99.90
55812;DHT22;41742;52.048;6.092;2022-12-18T08:36:37;-5.10;99.90
55812;DHT22;41742;52.048;6.092;2022-12-18T08:39:02;-5.00;99.90
55812;DHT22;41742;52.048;6.092;2022-12-18T08:41:28;-4.80;99.90
55812;DHT22;41742;52.048;6.092;2022-12-18T08:43:53;-4.80;99.90
55812;DHT22;41742;52.048;6.092;2022-12-18T08:46:40;-4.70;99.90
55812;DHT22;41742;52.048;6.092;2022-12-18T08:49:07;-4.60;99.90
55812;DHT22;41742;52.048;6.092;2022-12-18T08:51:34;-4.50;99.90
55812;DHT22;41742;52.048;6.092;2022-12-18T08:53:59;-4.40;99.90
55812;DHT22;41742;52.048;6.092;2022-12-18T08:56:25;-4.30;99.90
55812;DHT22;41742;52.048;6.092;2022-12-18T08:58:52;-4.30;99.90
55812;DHT22;41742;52.048;6.092;2022-12-18T09:01:19;-4.30;99.90
55812;DHT22;41742;52.048;6.092;2022-12-18T09:03:44;-4.20;99.90
55812;DHT22;41742;52.048;6.092;2022-12-18T09:06:14;-4.10;99.90
55812;DHT22;41742;52.048;6.092;2022-12-18T09:08:41;-4.10;99.90
55812;DHT22;41742;52.048;6.092;2022-12-18T09:11:14;-4.10;99.90
55812;DHT22;41742;52.048;6.092;2022-12-18T09:13:40;-4.00;99.90
55812;DHT22;41742;52.048;6.092;2022-12-18T09:16:06;-4.00;99.90
55812;DHT22;41742;52.048;6.092;2022-12-18T09:18:31;-3.90;99.90
55812;DHT22;41742;52.048;6.092;2022-12-18T09:20:57;-3.90;99.90
55812;DHT22;41742;52.048;6.092;2022-12-18T09:23:22;-3.80;99.90
55812;DHT22;41742;52.048;6.092;2022-12-18T09:25:48;-3.80;99.90
55812;DHT22;41742;52.048;6.092;2022-12-18T09:28:16;-3.70;99.90
55812;DHT22;41742;52.048;6.092;2022-12-18T09:30:45;-3.60;99.90
55812;DHT22;41742;52.048;6.092;2022-12-18T09:33:11;-3.50;99.90
55812;DHT22;41742;52.048;6.092;2022-12-18T09:35:39;-3.50;99.90
55812;DHT22;41742;52.048;6.092;2022-12-18T09:38:05;-3.40;99.90
55812;DHT22;41742;52.048;6.092;2022-12-18T09:40:49;-3.30;99.90
55812;DHT22;41742;52.048;6.092;2022-12-18T09:43:22;-3.20;99.90
55812;DHT22;41742;52.048;6.092;2022-12-18T09:45:53;-3.20;99.90
55812;DHT22;41742;52.048;6.092;2022-12-18T09:48:29;-3.10;99.90
55812;DHT22;41742;52.048;6.092;2022-12-18T09:51:03;-3.10;99.90
55812;DHT22;41742;52.048;6.092;2022-12-18T09:53:34;-3.00;99.90
55812;DHT22;41742;52.048;6.092;2022-12-18T09:56:01;-3.00;99.90
55812;DHT22;41742;52.048;6.092;2022-12-18T09:58:34;-2.90;99.90
55812;DHT22;41742;52.048;6.092;2022-12-18T10:01:01;-2.80;99.90
55812;DHT22;41742;52.048;6.092;2022-12-18T10:03:27;-2.80;99.90
55812;DHT22;41742;52.048;6.092;2022-12-18T10:06:05;-2.70;99.90
55812;DHT22;41742;52.048;6.092;2022-12-18T10:08:59;-2.70;99.90
55812;DHT22;41742;52.048;6.092;2022-12-18T10:17:28;-2.60;99.90
55812;DHT22;41742;52.048;6.092;2022-12-18T10:20:03;-2.50;99.90
55812;DHT22;41742;52.048;6.092;2022-12-18T10:22:41;-2.40;99.90
55812;DHT22;41742;52.048;6.092;2022-12-18T10:25:40;-2.40;99.90
55812;DHT22;41742;52.048;6.092;2022-12-18T10:28:14;-2.30;99.90
55812;DHT22;41742;52.048;6.092;2022-12-18T10:30:41;-2.30;99.90
55812;DHT22;41742;52.048;6.092;2022-12-18T10:33:13;-2.20;99.90
55812;DHT22;41742;52.048;6.092;2022-12-18T10:35:40;-2.10;99.90
55812;DHT22;41742;52.048;6.092;2022-12-18T10:41:03;-2.00;99.90
55812;DHT22;41742;52.048;6.092;2022-12-18T10:51:06;-1.80;99.90
55812;DHT22;41742;52.048;6.092;2022-12-18T10:53:34;-1.80;99.90
55812;DHT22;41742;52.048;6.092;2022-12-18T10:56:03;-1.70;99.90
55812;DHT22;41742;52.048;6.092;2022-12-18T10:58:32;-1.70;99.90
55812;DHT22;41742;52.048;6.092;2022-12-18T11:04:08;-1.70;99.90
55812;DHT22;41742;52.048;6.092;2022-12-18T11:06:33;-1.60;99.90
55812;DHT22;41742;52.048;6.092;2022-12-18T11:09:02;-1.50;99.90
55812;DHT22;41742;52.048;6.092;2022-12-18T11:11:28;-1.50;99.90
55812;DHT22;41742;52.048;6.092;2022-12-18T11:14:14;-1.50;99.90
55812;DHT22;41742;52.048;6.092;2022-12-18T11:16:49;-1.40;99.90
55812;DHT22;41742;52.048;6.092;2022-12-18T11:19:26;-1.50;99.90
55812;DHT22;41742;52.048;6.092;2022-12-18T11:21:52;-1.40;99.90
55812;DHT22;41742;52.048;6.092;2022-12-18T11:24:31;-1.40;99.90
55812;DHT22;41742;52.048;6.092;2022-12-18T11:27:05;-1.40;99.90
55812;DHT22;41742;52.048;6.092;2022-12-18T11:29:34;-1.30;99.90
55812;DHT22;41742;52.048;6.092;2022-12-18T11:34:59;-1.20;99.90
55812;DHT22;41742;52.048;6.092;2022-12-18T11:37:27;-1.20;99.90
55812;DHT22;41742;52.048;6.092;2022-12-18T11:40:06;-1.20;99.90
55812;DHT22;41742;52.048;6.092;2022-12-18T11:42:54;-1.10;99.90
55812;DHT22;41742;52.048;6.092;2022-12-18T11:45:36;-1.10;99.90
55812;DHT22;41742;52.048;6.092;2022-12-18T11:48:29;-1.10;99.90
55812;DHT22;41742;52.048;6.092;2022-12-18T11:50:57;-1.00;99.90
55812;DHT22;41742;52.048;6.092;2022-12-18T11:53:25;-1.00;99.90
55812;DHT22;41742;52.048;6.092;2022-12-18T12:09:24;-0.80;99.90
55812;DHT22;41742;52.048;6.092;2022-12-18T12:15:03;-0.70;99.90
55812;DHT22;41742;52.048;6.092;2022-12-18T12:20:29;-0.70;99.90
55812;DHT22;41742;52.048;6.092;2022-12-18T12:23:11;-0.60;99.90
55812;DHT22;41742;52.048;6.092;2022-12-18T12:26:30;-0.60;99.90
55812;DHT22;41742;52.048;6.092;2022-12-18T12:39:47;-0.50;99.90
55812;DHT22;41742;52.048;6.092;2022-12-18T12:45:13;-0.50;99.90
55812;DHT22;41742;52.048;6.092;2022-12-18T12:47:42;-0.50;99.90
55812;DHT22;41742;52.048;6.092;2022-12-18T12:50:19;-0.50;99.90
55812;DHT22;41742;52.048;6.092;2022-12-18T12:52:50;-0.50;99.90
55812;DHT22;41742;52.048;6.092;2022-12-18T12:55:27;-0.50;99.90
55812;DHT22;41742;52.048;6.092;2022-12-18T12:58:15;-0.40;99.90
55812;DHT22;41742;52.048;6.092;2022-12-18T13:00:53;-0.40;99.90
55812;DHT22;41742;52.048;6.092;2022-12-18T13:03:41;-0.40;99.90
55812;DHT22;41742;52.048;6.092;2022-12-18T13:06:14;-0.40;99.90
55812;DHT22;41742;52.048;6.092;2022-12-18T13:08:56;-0.40;99.90
55812;DHT22;41742;52.048;6.092;2022-12-18T13:11:35;-0.40;99.90
55812;DHT22;41742;52.048;6.092;2022-12-18T13:14:26;-0.40;99.90
55812;DHT22;41742;52.048;6.092;2022-12-18T13:20:05;-0.40;99.90
55812;DHT22;41742;52.048;6.092;2022-12-18T13:22:44;-0.40;99.90
55812;DHT22;41742;52.048;6.092;2022-12-18T13:25:34;-0.40;99.90
55812;DHT22;41742;52.048;6.092;2022-12-18T13:38:37;-0.30;99.90
55812;DHT22;41742;52.048;6.092;2022-12-18T13:43:47;-0.30;99.90
55812;DHT22;41742;52.048;6.092;2022-12-18T13:51:47;-0.30;99.90
55812;DHT22;41742;52.048;6.092;2022-12-18T13:54:30;-0.30;99.90
55812;DHT22;41742;52.048;6.092;2022-12-18T13:56:58;-0.30;99.90
55812;DHT22;41742;52.048;6.092;2022-12-18T13:59:35;-0.30;99.90
55812;DHT22;41742;52.048;6.092;2022-12-18T14:04:37;-0.30;99.90
55812;DHT22;41742;52.048;6.092;2022-12-18T14:07:14;-0.20;99.90
55812;DHT22;41742;52.048;6.092;2022-12-18T14:09:46;-0.30;99.90
55812;DHT22;41742;52.048;6.092;2022-12-18T14:12:22;-0.30;99.90
55812;DHT22;41742;52.048;6.092;2022-12-18T14:18:01;-0.30;99.90
55812;DHT22;41742;52.048;6.092;2022-12-18T14:20:32;-0.30;99.90
55812;DHT22;41742;52.048;6.092;2022-12-18T14:22:59;-0.40;99.90
55812;DHT22;41742;52.048;6.092;2022-12-18T14:25:29;-0.40;99.90
55812;DHT22;41742;52.048;6.092;2022-12-18T14:28:14;-0.40;99.90
55812;DHT22;41742;52.048;6.092;2022-12-18T14:30:46;-0.30;99.90
55812;DHT22;41742;52.048;6.092;2022-12-18T14:35:53;-0.30;99.90
55812;DHT22;41742;52.048;6.092;2022-12-18T14:38:28;-0.30;99.90
55812;DHT22;41742;52.048;6.092;2022-12-18T14:43:29;-0.40;99.90
55812;DHT22;41742;52.048;6.092;2022-12-18T14:45:55;-0.30;99.90
55812;DHT22;41742;52.048;6.092;2022-12-18T14:48:41;-0.30;99.90
55812;DHT22;41742;52.048;6.092;2022-12-18T14:51:23;-0.30;99.90
55812;DHT22;41742;52.048;6.092;2022-12-18T14:54:03;-0.30;99.90
55812;DHT22;41742;52.048;6.092;2022-12-18T14:56:51;-0.20;99.90
55812;DHT22;41742;52.048;6.092;2022-12-18T14:59:24;-0.30;99.90
55812;DHT22;41742;52.048;6.092;2022-12-18T15:04:35;-0.30;99.90
55812;DHT22;41742;52.048;6.092;2022-12-18T15:07:21;-0.30;99.90
55812;DHT22;41742;52.048;6.092;2022-12-18T15:10:17;-0.30;99.90
55812;DHT22;41742;52.048;6.092;2022-12-18T15:20:50;-0.30;99.90
55812;DHT22;41742;52.048;6.092;2022-12-18T15:25:54;-0.30;99.90
55812;DHT22;41742;52.048;6.092;2022-12-18T15:28:45;-0.30;99.90
55812;DHT22;41742;52.048;6.092;2022-12-18T15:36:15;-0.30;99.90
55812;DHT22;41742;52.048;6.092;2022-12-18T15:38:45;-0.30;99.90
55812;DHT22;41742;52.048;6.092;2022-12-18T15:41:13;-0.30;99.90
55812;DHT22;41742;52.048;6.092;2022-12-18T15:43:40;-0.30;99.90
55812;DHT22;41742;52.048;6.092;2022-12-18T15:46:13;-0.30;99.90
55812;DHT22;41742;52.048;6.092;2022-12-18T15:48:41;-0.30;99.90
55812;DHT22;41742;52.048;6.092;2022-12-18T15:51:27;-0.30;99.90
55812;DHT22;41742;52.048;6.092;2022-12-18T15:53:56;-0.30;99.90
55812;DHT22;41742;52.048;6.092;2022-12-18T15:56:23;-0.30;99.90
55812;DHT22;41742;52.048;6.092;2022-12-18T15:59:11;-0.30;99.90
55812;DHT22;41742;52.048;6.092;2022-12-18T16:01:37;-0.20;99.90
55812;DHT22;41742;52.048;6.092;2022-12-18T16:04:03;-0.30;99.90
55812;DHT22;41742;52.048;6.092;2022-12-18T16:06:29;-0.20;99.90
55812;DHT22;41742;52.048;6.092;2022-12-18T16:08:54;-0.20;99.90
55812;DHT22;41742;52.048;6.092;2022-12-18T16:11:23;-0.20;99.90
55812;DHT22;41742;52.048;6.092;2022-12-18T16:14:19;-0.10;99.90
55812;DHT22;41742;52.048;6.092;2022-12-18T16:16:47;-0.20;99.90
55812;DHT22;41742;52.048;6.092;2022-12-18T16:19:13;-0.10;99.90
55812;DHT22;41742;52.048;6.092;2022-12-18T16:21:39;-0.10;99.90
55812;DHT22;41742;52.048;6.092;2022-12-18T16:24:05;-0.10;99.90
55812;DHT22;41742;52.048;6.092;2022-12-18T16:26:30;-0.10;99.90
55812;DHT22;41742;52.048;6.092;2022-12-18T16:28:56;-0.10;99.90
55812;DHT22;41742;52.048;6.092;2022-12-18T16:31:22;-0.10;99.90
55812;DHT22;41742;52.048;6.092;2022-12-18T16:33:47;-0.10;99.90
55812;DHT22;41742;52.048;6.092;2022-12-18T16:36:13;-0.10;99.90
55812;DHT22;41742;52.048;6.092;2022-12-18T16:38:39;0.00;99.90
55812;DHT22;41742;52.048;6.092;2022-12-18T16:41:18;0.00;99.90
55812;DHT22;41742;52.048;6.092;2022-12-18T16:43:56;-0.10;99.90
55812;DHT22;41742;52.048;6.092;2022-12-18T16:46:22;-0.10;99.90
55812;DHT22;41742;52.048;6.092;2022-12-18T16:48:48;-0.10;99.90
55812;DHT22;41742;52.048;6.092;2022-12-18T16:51:14;-0.10;99.90
55812;DHT22;41742;52.048;6.092;2022-12-18T16:53:39;-0.10;99.90
55812;DHT22;41742;52.048;6.092;2022-12-18T16:56:05;-0.10;99.90
55812;DHT22;41742;52.048;6.092;2022-12-18T16:58:31;-0.10;99.90
55812;DHT22;41742;52.048;6.092;2022-12-18T17:00:57;-0.10;99.90
55812;DHT22;41742;52.048;6.092;2022-12-18T17:03:22;-0.10;99.90
55812;DHT22;41742;52.048;6.092;2022-12-18T17:05:48;-0.10;99.90
55812;DHT22;41742;52.048;6.092;2022-12-18T17:08:14;-0.10;99.90
55812;DHT22;41742;52.048;6.092;2022-12-18T17:10:39;-0.10;99.90
55812;DHT22;41742;52.048;6.092;2022-12-18T17:13:05;-0.10;99.90
55812;DHT22;41742;52.048;6.092;2022-12-18T17:15:34;-0.10;99.90
55812;DHT22;41742;52.048;6.092;2022-12-18T17:18:00;-0.10;99.90
55812;DHT22;41742;52.048;6.092;2022-12-18T17:20:26;-0.20;99.90
55812;DHT22;41742;52.048;6.092;2022-12-18T17:22:51;-0.10;99.90
55812;DHT22;41742;52.048;6.092;2022-12-18T17:25:17;-0.10;99.90
55812;DHT22;41742;52.048;6.092;2022-12-18T17:27:43;-0.20;99.90
55812;DHT22;41742;52.048;6.092;2022-12-18T17:30:09;-0.20;99.90
55812;DHT22;41742;52.048;6.092;2022-12-18T17:32:35;-0.20;99.90
55812;DHT22;41742;52.048;6.092;2022-12-18T17:35:01;-0.20;99.90
55812;DHT22;41742;52.048;6.092;2022-12-18T17:37:26;-0.20;99.90
55812;DHT22;41742;52.048;6.092;2022-12-18T17:39:52;-0.20;99.90
55812;DHT22;41742;52.048;6.092;2022-12-18T17:42:18;-0.20;99.90
55812;DHT22;41742;52.048;6.092;2022-12-18T17:44:44;-0.20;99.90
55812;DHT22;41742;52.048;6.092;2022-12-18T17:47:11;-0.10;99.90
55812;DHT22;41742;52.048;6.092;2022-12-18T17:49:37;-0.10;99.90
55812;DHT22;41742;52.048;6.092;2022-12-18T17:52:03;-0.20;99.90
55812;DHT22;41742;52.048;6.092;2022-12-18T17:54:29;-0.20;99.90
55812;DHT22;41742;52.048;6.092;2022-12-18T17:56:54;-0.20;99.90
55812;DHT22;41742;52.048;6.092;2022-12-18T17:59:20;-0.20;99.90